Time;durP1;ratioP1;P1;durP2;ratioP2;P2;SDS_P1;SDS_P2;PMS_P1;PMS_P2;Temp;Humidity;BMP_temperature;BMP_pressure;BME280_temperature;BME280_humidity;BME280_pressure;Samples;Min_cycle;Max_cycle;Signal;HPM_P1;HPM_P2
2023/01/11 00:01:33;;;;;;;4.40;2.70;;;9.30;99.90;;;;;;4997461;28;20045;-70
2023/01/11 00:03:59;;;;;;;5.10;3.30;;;9.30;99.90;;;;;;5000660;28;20049;-70
2023/01/11 00:06:25;;;;;;;4.80;3.30;;;9.30;99.90;;;;;;5000294;28;20053;-70
2023/01/11 00:08:50;;;;;;;4.93;3.33;;;9.20;99.90;;;;;;4995075;28;20570;-70
2023/01/11 00:11:18;;;;;;;5.63;3.60;;;9.30;99.90;;;;;;4991363;28;20156;-70
2023/01/11 00:13:44;;;;;;;5.85;3.55;;;9.40;99.90;;;;;;4998404;28;20042;-70
2023/01/11 00:16:10;;;;;;;3.85;2.83;;;9.40;99.90;;;;;;4997087;28;20125;-70
2023/01/11 00:18:36;;;;;;;;;;;9.40;99.90;;;;;;5003182;28;20459;-70
2023/01/11 00:21:07;;;;;;;4.63;3.30;;;9.40;99.90;;;;;;4990119;28;19995;-70
2023/01/11 00:23:33;;;;;;;4.43;2.88;;;9.40;99.90;;;;;;4993185;28;20622;-70
2023/01/11 00:26:06;;;;;;;5.32;3.13;;;9.40;99.90;;;;;;4994234;28;20053;-70
2023/01/11 00:28:32;;;;;;;4.38;3.03;;;9.50;99.90;;;;;;4976760;28;20069;-70
2023/01/11 00:30:58;;;;;;;4.95;3.30;;;9.50;99.90;;;;;;4999252;28;20123;-70
2023/01/11 00:33:24;;;;;;;4.38;3.05;;;9.50;99.90;;;;;;4996996;28;20046;-70
2023/01/11 00:35:53;;;;;;;3.93;2.90;;;9.50;99.90;;;;;;4993184;28;20038;-70
2023/01/11 00:49:18;;;;;;;3.33;2.40;;;9.50;99.90;;;;;;4989363;28;20042;-72
2023/01/11 00:51:44;;;;;;;3.23;2.37;;;9.60;99.90;;;;;;4998017;28;20050;-71
2023/01/11 00:54:10;;;;;;;4.00;2.63;;;9.60;99.90;;;;;;5004585;28;20769;-74
2023/01/11 00:56:36;;;;;;;3.97;2.50;;;9.60;99.90;;;;;;4994724;28;20053;-71
2023/01/11 00:59:02;;;;;;;3.20;2.15;;;9.60;99.90;;;;;;4999377;28;20037;-71
2023/01/11 01:01:28;;;;;;;2.88;2.00;;;9.70;99.90;;;;;;4990739;28;20393;-71
2023/01/11 01:03:53;;;;;;;3.93;2.40;;;9.60;99.90;;;;;;5003580;28;20046;-71
2023/01/11 01:06:19;;;;;;;3.50;2.17;;;9.60;99.90;;;;;;4976303;28;20154;-70
2023/01/11 01:08:44;;;;;;;5.67;2.00;;;9.60;99.90;;;;;;5001021;28;20454;-71
2023/01/11 01:11:10;;;;;;;3.00;2.17;;;9.60;99.90;;;;;;5001293;28;20057;-71
2023/01/11 01:16:20;;;;;;;2.83;2.13;;;9.70;99.90;;;;;;4998191;28;20449;-71
2023/01/11 01:18:46;;;;;;;2.77;1.70;;;9.70;99.90;;;;;;4995438;28;20040;-70
2023/01/11 01:21:11;;;;;;;3.23;2.13;;;9.80;99.90;;;;;;5002113;28;20512;-70
2023/01/11 01:23:37;;;;;;;3.03;1.80;;;9.80;99.90;;;;;;4996563;28;20816;-71
2023/01/11 01:26:04;;;;;;;3.57;1.90;;;9.80;99.90;;;;;;5003549;28;20168;-70
2023/01/11 01:28:30;;;;;;;2.65;1.75;;;9.80;99.90;;;;;;4999599;28;20117;-70
2023/01/11 01:30:55;;;;;;;3.20;1.97;;;9.80;99.90;;;;;;4991328;28;20460;-70
2023/01/11 01:33:21;;;;;;;3.07;1.90;;;9.90;99.90;;;;;;4991137;28;20054;-70
2023/01/11 01:35:47;;;;;;;2.92;1.70;;;9.90;99.90;;;;;;4998486;28;20041;-70
2023/01/11 01:38:13;;;;;;;3.13;1.77;;;9.90;99.90;;;;;;5003196;28;20507;-70
2023/01/11 01:40:43;;;;;;;2.47;1.63;;;9.90;99.90;;;;;;4988748;28;20045;-70
2023/01/11 01:43:14;;;;;;;2.20;1.38;;;10.00;99.90;;;;;;4998785;28;20143;-70
2023/01/11 01:45:40;;;;;;;2.33;1.70;;;10.00;99.90;;;;;;4999434;28;20169;-70
2023/01/11 01:48:10;;;;;;;2.35;1.30;;;10.00;99.90;;;;;;5000519;28;20519;-70
2023/01/11 01:50:44;;;;;;;2.63;1.60;;;10.00;99.90;;;;;;4995661;28;20056;-70
2023/01/11 01:53:15;;;;;;;1.85;1.23;;;10.10;99.90;;;;;;4986457;28;20417;-71
2023/01/11 01:55:46;;;;;;;3.10;1.30;;;10.10;99.90;;;;;;5004366;28;20358;-70
2023/01/11 01:58:17;;;;;;;2.30;1.42;;;10.10;99.90;;;;;;4986956;28;20050;-70
2023/01/11 02:00:47;;;;;;;2.53;1.55;;;10.10;99.90;;;;;;4992319;28;20045;-71
2023/01/11 02:03:19;;;;;;;2.30;1.42;;;10.10;99.90;;;;;;5000792;28;20196;-70
2023/01/11 02:05:45;;;;;;;2.75;1.48;;;10.10;99.90;;;;;;5015635;28;20045;-70
2023/01/11 02:08:16;;;;;;;;;;;10.10;99.90;;;;;;5003576;28;20450;-70
2023/01/11 02:10:42;;;;;;;2.67;1.30;;;10.20;99.90;;;;;;5000193;28;19917;-70
2023/01/11 02:13:11;;;;;;;2.47;1.33;;;10.20;99.90;;;;;;5001844;28;20607;-70
2023/01/11 02:15:37;;;;;;;1.80;1.00;;;10.20;99.90;;;;;;5004583;28;20076;-70
2023/01/11 02:18:04;;;;;;;2.55;1.42;;;10.20;99.90;;;;;;5008737;28;20447;-70
2023/01/11 02:21:05;;;;;;;1.20;0.80;;;10.30;99.90;;;;;;5004843;28;20042;-70
2023/01/11 02:24:08;;;;;;;1.73;1.00;;;10.30;99.90;;;;;;4954453;28;20493;-70
2023/01/11 02:26:58;;;;;;;2.03;1.08;;;10.40;99.90;;;;;;4991806;28;20045;-70
2023/01/11 02:29:59;;;;;;;2.90;1.08;;;10.40;99.90;;;;;;4994859;28;20231;-70
2023/01/11 02:32:41;;;;;;;2.35;1.23;;;10.40;99.90;;;;;;4960737;28;20058;-70
2023/01/11 02:35:16;;;;;;;1.50;1.10;;;10.40;99.90;;;;;;4999980;28;20404;-70
2023/01/11 02:38:00;;;;;;;2.65;1.30;;;10.50;99.90;;;;;;4998219;28;20511;-70
2023/01/11 02:40:57;;;;;;;1.92;1.10;;;10.50;99.90;;;;;;4998010;28;20049;-70
2023/01/11 02:46:33;;;;;;;1.63;0.90;;;10.50;99.90;;;;;;5006156;28;20084;-70
2023/01/11 02:49:07;;;;;;;1.85;0.82;;;10.60;99.90;;;;;;5007093;28;20096;-70
2023/01/11 02:51:54;;;;;;;2.30;0.95;;;10.60;99.90;;;;;;5001669;28;20050;-70
2023/01/11 02:54:22;;;;;;;1.45;0.93;;;10.60;99.90;;;;;;5001600;28;20378;-70
2023/01/11 02:56:51;;;;;;;1.98;0.80;;;10.60;99.90;;;;;;5004031;28;20057;-70
2023/01/11 02:59:21;;;;;;;1.95;1.23;;;10.60;99.90;;;;;;5006319;28;20072;-70
2023/01/11 03:01:50;;;;;;;1.60;1.00;;;10.60;99.90;;;;;;5004744;28;20053;-70
2023/01/11 03:04:29;;;;;;;1.63;1.05;;;10.60;99.90;;;;;;5002962;28;20089;-70
2023/01/11 03:07:19;;;;;;;2.97;1.10;;;10.70;99.90;;;;;;5005948;28;20034;-70
2023/01/11 03:09:44;;;;;;;2.47;1.92;;;10.70;99.90;;;;;;4996465;28;20388;-70
2023/01/11 03:15:47;;;;;;;7.88;2.20;;;10.70;99.90;;;;;;5000641;28;20110;-70
2023/01/11 03:18:38;;;;;;;5.35;2.03;;;10.70;99.90;;;;;;5010202;28;20507;-70
2023/01/11 03:21:30;;;;;;;5.82;2.15;;;10.70;99.90;;;;;;5003400;28;20065;-70
2023/01/11 03:23:59;;;;;;;2.80;1.85;;;10.70;99.90;;;;;;4998303;28;20203;-70
2023/01/11 03:26:39;;;;;;;4.80;1.90;;;10.70;99.90;;;;;;5001822;28;20530;-70
2023/01/11 03:29:15;;;;;;;5.38;2.40;;;10.70;99.90;;;;;;5000199;28;20064;-70
2023/01/11 03:32:15;;;;;;;9.48;2.45;;;10.70;99.90;;;;;;5007447;28;20523;-70
2023/01/11 03:35:03;;;;;;;8.25;2.00;;;10.70;99.90;;;;;;5003225;28;20042;-70
2023/01/11 03:37:38;;;;;;;5.65;1.92;;;10.70;99.90;;;;;;5003926;28;20037;-71
2023/01/11 03:40:19;;;;;;;7.93;2.72;;;10.70;99.90;;;;;;4998701;28;20541;-70
2023/01/11 03:45:51;;;;;;;8.05;2.20;;;10.70;99.90;;;;;;5004033;28;20037;-70
2023/01/11 03:48:25;;;;;;;5.53;2.47;;;10.70;99.90;;;;;;5002368;28;20049;-70
2023/01/11 03:50:54;;;;;;;9.95;2.67;;;10.70;99.90;;;;;;5006553;28;20038;-70
2023/01/11 03:53:22;;;;;;;11.60;2.70;;;10.70;99.90;;;;;;4994184;28;20046;-70
2023/01/11 03:55:54;;;;;;;12.98;2.28;;;10.60;99.90;;;;;;5013163;28;20060;-70
2023/01/11 03:58:20;;;;;;;7.07;2.15;;;10.70;99.90;;;;;;4994384;28;20046;-70
2023/01/11 04:00:48;;;;;;;11.02;2.53;;;10.60;99.90;;;;;;5007950;28;20034;-70
2023/01/11 04:03:14;;;;;;;10.07;2.30;;;10.70;99.90;;;;;;5000458;28;20046;-70
2023/01/11 04:05:42;;;;;;;9.20;1.90;;;10.70;99.90;;;;;;5010291;28;20046;-71
2023/01/11 04:08:09;;;;;;;9.73;2.17;;;10.60;99.90;;;;;;5003815;28;20046;-70
2023/01/11 04:10:36;;;;;;;10.48;2.08;;;10.60;99.90;;;;;;4998546;28;20122;-70
2023/01/11 04:13:01;;;;;;;7.00;2.60;;;10.60;99.90;;;;;;4997333;28;20169;-70
2023/01/11 04:15:29;;;;;;;9.73;2.07;;;10.60;99.90;;;;;;5009716;28;20158;-70
2023/01/11 04:17:55;;;;;;;13.45;2.22;;;10.60;99.90;;;;;;5001399;28;20418;-70
2023/01/11 04:20:20;;;;;;;10.60;2.08;;;10.60;99.90;;;;;;5004013;28;20099;-70
2023/01/11 04:22:49;;;;;;;10.83;1.70;;;10.60;99.90;;;;;;5003470;28;20121;-70
2023/01/11 04:25:14;;;;;;;8.95;3.00;;;10.60;99.90;;;;;;5007009;28;20287;-70
2023/01/11 04:27:40;;;;;;;13.97;2.67;;;10.60;99.90;;;;;;5001838;28;20480;-71
2023/01/11 04:30:06;;;;;;;11.17;2.27;;;10.60;99.90;;;;;;4995642;28;20424;-71
2023/01/11 04:32:32;;;;;;;10.48;2.05;;;10.60;99.90;;;;;;4993846;28;20029;-71
2023/01/11 04:34:57;;;;;;;14.90;2.27;;;10.50;99.90;;;;;;4999114;28;20084;-70
2023/01/11 04:37:23;;;;;;;7.43;1.40;;;10.50;99.90;;;;;;5001772;28;20042;-70
2023/01/11 04:39:49;;;;;;;10.53;2.13;;;10.50;99.90;;;;;;5001963;28;20044;-70
2023/01/11 04:42:17;;;;;;;8.73;1.73;;;10.50;99.90;;;;;;4997197;28;20196;-71
2023/01/11 04:44:43;;;;;;;9.30;1.25;;;10.40;99.90;;;;;;4993877;28;20522;-71
2023/01/11 04:47:09;;;;;;;;;;;10.40;99.90;;;;;;4997620;28;20250;-71
2023/01/11 04:49:35;;;;;;;8.43;1.83;;;10.40;99.90;;;;;;4999982;28;20119;-70
2023/01/11 04:52:00;;;;;;;11.30;2.57;;;10.40;99.90;;;;;;5005453;28;20469;-71
2023/01/11 04:54:26;;;;;;;8.87;1.67;;;10.30;99.90;;;;;;5002091;28;20409;-70
2023/01/11 04:56:51;;;;;;;13.03;2.13;;;10.30;99.90;;;;;;4995369;28;20092;-70
2023/01/11 04:59:17;;;;;;;18.67;1.87;;;10.40;99.90;;;;;;4998569;28;20101;-70
2023/01/11 05:01:42;;;;;;;16.40;2.73;;;10.30;99.90;;;;;;5001494;28;21766;-70
2023/01/11 05:04:08;;;;;;;7.73;1.87;;;10.40;99.90;;;;;;4998069;28;20496;-70
2023/01/11 05:06:34;;;;;;;12.83;2.53;;;10.30;99.90;;;;;;4989482;28;20069;-70
2023/01/11 05:08:59;;;;;;;18.33;2.60;;;10.30;99.90;;;;;;4998050;28;20515;-71
2023/01/11 05:11:25;;;;;;;18.60;2.07;;;10.30;99.90;;;;;;5003384;28;20033;-71
2023/01/11 05:13:50;;;;;;;13.20;2.50;;;10.40;99.90;;;;;;5006523;28;20069;-71
2023/01/11 05:16:25;;;;;;;19.47;2.87;;;10.30;99.90;;;;;;4999229;28;20049;-70
2023/01/11 05:18:56;;;;;;;16.38;2.40;;;10.40;99.90;;;;;;5005595;28;20038;-71
2023/01/11 05:21:24;;;;;;;20.08;2.05;;;10.30;99.90;;;;;;5009206;28;20044;-70
2023/01/11 05:23:51;;;;;;;12.15;1.83;;;10.30;99.90;;;;;;4989073;28;20104;-71
2023/01/11 05:26:18;;;;;;;;;;;10.20;99.90;;;;;;4995437;28;20050;-70
2023/01/11 05:28:44;;;;;;;6.27;1.20;;;10.30;99.90;;;;;;5003562;28;19926;-70
2023/01/11 05:31:10;;;;;;;;;;;10.20;99.90;;;;;;5006554;28;20488;-70
2023/01/11 05:33:36;;;;;;;15.82;2.72;;;10.20;99.90;;;;;;4998041;28;19922;-70
2023/01/11 05:36:04;;;;;;;15.83;1.80;;;10.20;99.90;;;;;;5001504;28;20046;-71
2023/01/11 05:38:30;;;;;;;9.75;1.80;;;10.10;99.90;;;;;;5005781;28;20041;-70
2023/01/11 05:41:02;;;;;;;10.45;1.77;;;10.10;99.90;;;;;;4999737;28;20041;-70
2023/01/11 05:43:29;;;;;;;13.65;2.63;;;10.00;99.90;;;;;;4994760;28;20050;-71
2023/01/11 05:45:56;;;;;;;18.50;2.00;;;10.00;99.90;;;;;;4993480;28;20103;-70
2023/01/11 05:48:23;;;;;;;21.80;2.97;;;10.00;99.90;;;;;;5003701;28;20388;-70
2023/01/11 05:50:50;;;;;;;17.00;2.20;;;10.00;99.90;;;;;;5003744;28;20203;-70
2023/01/11 05:53:15;;;;;;;13.48;1.83;;;9.90;99.90;;;;;;5034545;22;20045;-71
2023/01/11 05:55:54;;;;;;;12.60;2.20;;;9.90;99.90;;;;;;5026552;28;20510;-71
2023/01/11 05:58:21;;;;;;;13.48;2.08;;;9.90;99.90;;;;;;5016778;28;20574;-71
2023/01/11 06:00:53;;;;;;;7.25;1.92;;;9.90;99.90;;;;;;4994034;28;20045;-71
2023/01/11 06:03:18;;;;;;;5.97;1.77;;;9.80;99.90;;;;;;5013632;28;20037;-71
2023/01/11 06:05:44;;;;;;;13.52;2.40;;;9.80;99.90;;;;;;5020653;28;20488;-72
2023/01/11 06:08:10;;;;;;;11.75;2.58;;;9.80;99.90;;;;;;5026430;28;20046;-72
2023/01/11 06:10:36;;;;;;;17.27;1.57;;;9.80;99.90;;;;;;5010868;28;20383;-72
2023/01/11 06:15:45;;;;;;;13.15;1.63;;;9.90;99.90;;;;;;5022509;28;20038;-71
2023/01/11 06:18:11;;;;;;;12.13;2.30;;;9.80;99.90;;;;;;5010276;28;20496;-71
2023/01/11 06:20:37;;;;;;;13.33;1.80;;;9.80;99.90;;;;;;4983023;28;20040;-71
2023/01/11 06:23:02;;;;;;;16.30;2.87;;;9.70;99.90;;;;;;5004929;28;20305;-71
2023/01/11 06:25:29;;;;;;;12.13;2.07;;;9.70;99.90;;;;;;5003236;28;20111;-71
2023/01/11 06:27:55;;;;;;;13.38;1.80;;;9.70;99.90;;;;;;5004429;28;20076;-71
2023/01/11 06:30:24;;;;;;;11.05;1.33;;;9.70;99.90;;;;;;5020713;28;20411;-71
2023/01/11 06:32:50;;;;;;;9.27;1.75;;;9.60;99.90;;;;;;5001144;28;20121;-71
2023/01/11 06:35:16;;;;;;;7.43;1.63;;;9.70;99.90;;;;;;4986763;28;20061;-71
2023/01/11 06:37:42;;;;;;;10.70;1.93;;;9.60;99.90;;;;;;5021339;28;20041;-71
2023/01/11 06:40:08;;;;;;;3.63;1.00;;;9.70;99.90;;;;;;5005654;28;20360;-71
2023/01/11 06:42:34;;;;;;;19.73;2.50;;;9.60;99.90;;;;;;5006290;28;20041;-71
2023/01/11 06:44:59;;;;;;;14.27;2.10;;;9.60;99.90;;;;;;5022719;28;20049;-71
2023/01/11 06:47:25;;;;;;;8.93;1.60;;;9.60;99.90;;;;;;5011963;28;20041;-72
2023/01/11 06:49:51;;;;;;;8.83;1.33;;;9.60;99.90;;;;;;5003017;28;20041;-71
2023/01/11 06:52:16;;;;;;;10.97;2.00;;;9.70;99.90;;;;;;5014741;28;20135;-71
2023/01/11 06:54:42;;;;;;;6.60;1.43;;;9.60;99.90;;;;;;5002916;28;20076;-71
2023/01/11 06:57:07;;;;;;;7.93;1.50;;;9.60;99.90;;;;;;5018915;28;20154;-72
2023/01/11 06:59:33;;;;;;;11.93;2.90;;;9.70;99.90;;;;;;5016883;28;20651;-72
2023/01/11 07:01:59;;;;;;;9.57;2.47;;;9.60;99.90;;;;;;5016256;28;20355;-72
2023/01/11 07:04:24;;;;;;;10.27;1.57;;;9.50;99.90;;;;;;5015161;28;20131;-71
2023/01/11 07:06:53;;;;;;;7.13;1.30;;;9.50;99.90;;;;;;5007984;28;20375;-71
2023/01/11 07:09:19;;;;;;;13.13;2.22;;;9.50;99.90;;;;;;5004603;28;20064;-71
2023/01/11 07:11:45;;;;;;;19.10;1.98;;;9.50;99.90;;;;;;5001146;28;20462;-71
2023/01/11 07:14:13;;;;;;;13.10;1.98;;;9.50;99.90;;;;;;5011544;28;20053;-71
2023/01/11 07:16:40;;;;;;;7.97;2.03;;;9.50;99.90;;;;;;5008409;28;20041;-71
2023/01/11 07:19:05;;;;;;;5.72;1.42;;;9.60;99.90;;;;;;5003816;28;20083;-71
2023/01/11 07:21:31;;;;;;;8.52;1.40;;;9.50;99.90;;;;;;5001131;28;20073;-71
2023/01/11 07:23:57;;;;;;;9.80;1.70;;;9.50;99.90;;;;;;5005660;28;20053;-71
2023/01/11 07:26:25;;;;;;;11.83;1.70;;;9.50;99.90;;;;;;5002105;28;20146;-71
2023/01/11 07:28:50;;;;;;;16.33;2.30;;;9.50;99.90;;;;;;5025700;28;20095;-71
2023/01/11 07:31:16;;;;;;;13.73;1.40;;;9.40;99.90;;;;;;5023166;28;20049;-72
2023/01/11 07:33:42;;;;;;;6.77;1.13;;;9.50;99.90;;;;;;4997034;28;20069;-71
2023/01/11 07:36:07;;;;;;;7.97;1.10;;;9.50;99.90;;;;;;5006807;28;20041;-71
2023/01/11 07:38:33;;;;;;;6.63;1.20;;;9.50;99.90;;;;;;5003594;28;20053;-71
2023/01/11 07:40:59;;;;;;;12.30;1.97;;;9.50;99.90;;;;;;5019854;28;20084;-71
2023/01/11 07:43:25;;;;;;;5.75;1.27;;;9.50;99.90;;;;;;5004471;28;20131;-71
2023/01/11 07:45:51;;;;;;;5.63;0.93;;;9.40;99.90;;;;;;5005029;28;20052;-71
2023/01/11 07:48:23;;;;;;;4.72;1.65;;;9.20;99.90;;;;;;5007556;28;20130;-77
2023/01/11 07:50:49;;;;;;;15.85;1.52;;;9.30;99.90;;;;;;5013675;28;20049;-71
2023/01/11 07:53:15;;;;;;;7.13;1.25;;;9.20;99.90;;;;;;5010642;28;20037;-71
2023/01/11 07:55:41;;;;;;;8.80;1.25;;;9.20;99.90;;;;;;5014172;28;20152;-71
2023/01/11 07:58:09;;;;;;;9.27;1.83;;;9.20;99.90;;;;;;5006386;28;20112;-71
2023/01/11 08:00:35;;;;;;;9.88;1.40;;;9.20;99.90;;;;;;4999691;28;20738;-71
2023/01/11 08:03:01;;;;;;;7.40;1.83;;;9.10;99.90;;;;;;5035742;28;20037;-74
2023/01/11 08:05:27;;;;;;;8.13;1.20;;;9.10;99.90;;;;;;5020618;28;20049;-72
2023/01/11 08:07:53;;;;;;;9.65;1.30;;;9.10;99.90;;;;;;5004197;28;20116;-72
2023/01/11 08:10:18;;;;;;;6.60;1.63;;;9.10;99.90;;;;;;5014930;28;20117;-71
2023/01/11 08:15:31;;;;;;;6.47;1.42;;;9.10;99.90;;;;;;5011236;28;20126;-71
2023/01/11 08:17:58;;;;;;;6.82;1.60;;;9.10;99.90;;;;;;4991705;28;20042;-71
2023/01/11 08:20:25;;;;;;;9.00;1.33;;;9.10;99.90;;;;;;5007216;28;20045;-71
2023/01/11 08:22:52;;;;;;;6.28;1.15;;;9.10;99.90;;;;;;5002538;28;20084;-72
2023/01/11 08:25:17;;;;;;;4.15;1.23;;;9.10;99.90;;;;;;5004254;28;20392;-71
2023/01/11 08:27:43;;;;;;;9.17;1.53;;;9.00;99.90;;;;;;5012870;28;20052;-72
2023/01/11 08:30:10;;;;;;;4.25;1.60;;;9.00;99.90;;;;;;5000430;28;20369;-72
2023/01/11 08:32:36;;;;;;;9.35;1.90;;;8.90;99.90;;;;;;5021887;28;20572;-72
2023/01/11 08:35:01;;;;;;;7.03;1.33;;;8.90;99.90;;;;;;5002726;28;20091;-72
2023/01/11 08:37:27;;;;;;;5.17;1.00;;;8.90;99.90;;;;;;4997531;28;20560;-71
2023/01/11 08:39:54;;;;;;;7.90;1.30;;;8.90;99.90;;;;;;5019567;28;20041;-72
2023/01/11 08:42:20;;;;;;;10.68;1.23;;;8.80;99.90;;;;;;5001064;28;20049;-72
2023/01/11 08:44:45;;;;;;;7.50;1.50;;;8.80;99.90;;;;;;5002372;28;20067;-72
2023/01/11 08:47:11;;;;;;;9.07;1.47;;;8.80;99.90;;;;;;4995527;28;20353;-71
2023/01/11 08:49:37;;;;;;;8.03;0.87;;;8.80;99.90;;;;;;4994670;28;20044;-72
2023/01/11 08:52:02;;;;;;;5.40;1.10;;;8.80;99.90;;;;;;5019057;28;20045;-72
2023/01/11 08:54:28;;;;;;;9.80;1.00;;;8.80;99.90;;;;;;5023881;28;20072;-72
2023/01/11 08:56:54;;;;;;;2.37;0.60;;;8.70;99.90;;;;;;5002005;28;20045;-71
2023/01/11 08:59:21;;;;;;;9.85;1.40;;;8.70;99.90;;;;;;4991485;28;20037;-71
2023/01/11 09:01:46;;;;;;;;;;;8.60;99.90;;;;;;5007200;28;20427;-72
2023/01/11 09:04:12;;;;;;;5.30;1.10;;;8.60;99.90;;;;;;5021974;28;19924;-72
2023/01/11 09:06:37;;;;;;;6.83;1.23;;;8.60;99.90;;;;;;5002020;28;20057;-71
2023/01/11 09:09:03;;;;;;;6.27;1.53;;;8.60;99.90;;;;;;5017802;28;20044;-71
2023/01/11 09:14:13;;;;;;;6.88;1.13;;;8.60;99.90;;;;;;5005517;28;20458;-72
2023/01/11 09:16:38;;;;;;;8.37;1.83;;;8.50;99.90;;;;;;5016459;28;20068;-72
2023/01/11 09:19:04;;;;;;;5.53;1.17;;;8.60;99.90;;;;;;5020421;28;20041;-71
2023/01/11 09:21:30;;;;;;;6.03;1.37;;;8.50;99.90;;;;;;4992457;28;20084;-72
2023/01/11 09:23:56;;;;;;;8.18;2.15;;;8.60;99.90;;;;;;4996989;28;20530;-71
2023/01/11 09:26:21;;;;;;;9.27;2.03;;;8.50;99.90;;;;;;5010616;28;20059;-72
2023/01/11 09:28:47;;;;;;;12.00;1.23;;;8.50;99.90;;;;;;5021458;28;20061;-72
2023/01/11 09:31:13;;;;;;;10.73;1.43;;;8.60;99.90;;;;;;5020416;28;20069;-71
2023/01/11 09:33:38;;;;;;;11.37;1.53;;;8.70;99.90;;;;;;5012483;28;20041;-71
2023/01/11 09:36:04;;;;;;;6.03;1.03;;;8.60;99.90;;;;;;5016741;28;20046;-71
2023/01/11 09:38:32;;;;;;;10.60;1.67;;;8.60;99.90;;;;;;4984885;28;20045;-71
2023/01/11 09:41:23;;;;;;;5.65;1.83;;;8.70;99.90;;;;;;4992290;28;20112;-71
2023/01/11 09:44:03;;;;;;;4.80;0.88;;;8.70;99.90;;;;;;5022738;28;20454;-71
2023/01/11 09:46:31;;;;;;;10.82;1.42;;;8.70;99.90;;;;;;5017380;28;20368;-71
2023/01/11 09:49:02;;;;;;;10.27;1.65;;;8.80;99.90;;;;;;5000060;28;20053;-71
2023/01/11 09:51:34;;;;;;;7.65;1.30;;;8.80;99.90;;;;;;4996105;28;20049;-72
2023/01/11 09:54:04;;;;;;;4.80;1.35;;;8.80;99.90;;;;;;4985882;28;20111;-72
2023/01/11 09:56:37;;;;;;;6.25;1.50;;;8.90;99.90;;;;;;4984070;28;20086;-71
2023/01/11 09:59:26;;;;;;;5.07;1.05;;;8.90;99.90;;;;;;5006835;28;20092;-71
2023/01/11 10:02:10;;;;;;;10.65;1.67;;;9.00;99.90;;;;;;5025588;28;20423;-71
2023/01/11 10:04:57;;;;;;;7.35;1.33;;;9.10;99.90;;;;;;5001290;28;20566;-71
2023/01/11 10:07:48;;;;;;;8.68;1.50;;;9.00;99.90;;;;;;5015052;28;20052;-72
2023/01/11 10:10:53;;;;;;;6.53;1.30;;;9.10;99.90;;;;;;5005101;28;20052;-71
2023/01/11 10:13:45;;;;;;;6.57;2.08;;;9.10;99.90;;;;;;5014663;28;20395;-73
2023/01/11 10:16:50;;;;;;;6.70;1.02;;;9.20;99.90;;;;;;5004990;28;20167;-71
2023/01/11 10:19:28;;;;;;;8.70;1.55;;;9.20;99.90;;;;;;5018513;28;20038;-71
2023/01/11 10:22:10;;;;;;;9.68;2.22;;;9.30;99.90;;;;;;5007065;28;20074;-72
2023/01/11 10:24:47;;;;;;;5.82;1.42;;;9.30;99.90;;;;;;5023558;28;20178;-71
2023/01/11 10:27:34;;;;;;;6.78;2.45;;;9.40;99.90;;;;;;4998782;28;20058;-71
2023/01/11 10:33:09;;;;;;;6.60;1.25;;;9.40;99.90;;;;;;5007283;28;20369;-71
2023/01/11 10:35:57;;;;;;;6.95;1.40;;;9.50;99.90;;;;;;4999729;28;20054;-71
2023/01/11 10:38:42;;;;;;;8.43;2.25;;;9.50;99.90;;;;;;4999464;28;20467;-71
2023/01/11 10:41:37;;;;;;;8.63;1.85;;;9.60;99.90;;;;;;4995746;28;20407;-71
2023/01/11 10:44:09;;;;;;;6.97;2.00;;;9.60;99.90;;;;;;4989036;28;20075;-72
2023/01/11 10:46:45;;;;;;;10.48;1.98;;;9.70;99.90;;;;;;4999743;28;20415;-71
2023/01/11 10:49:37;;;;;;;6.57;1.35;;;9.70;99.90;;;;;;5001874;28;20046;-72
2023/01/11 10:52:40;;;;;;;9.77;2.08;;;9.70;99.90;;;;;;5001910;28;20060;-71
2023/01/11 10:55:27;;;;;;;9.10;1.50;;;9.70;99.90;;;;;;4991389;28;20136;-71
2023/01/11 10:58:37;;;;;;;9.60;1.92;;;9.80;99.90;;;;;;4995303;28;20121;-71
2023/01/11 11:01:35;;;;;;;12.00;1.70;;;9.80;99.90;;;;;;5010185;28;20089;-71
2023/01/11 11:04:10;;;;;;;7.00;1.63;;;9.80;99.90;;;;;;5018188;28;20045;-72
2023/01/11 11:07:02;;;;;;;11.55;1.60;;;9.80;99.90;;;;;;5000008;28;20062;-71
2023/01/11 11:09:41;;;;;;;11.50;1.90;;;9.80;99.90;;;;;;5017883;28;20046;-72
2023/01/11 11:12:17;;;;;;;11.90;2.05;;;9.80;99.90;;;;;;5013423;28;20518;-71
2023/01/11 11:15:00;;;;;;;14.23;2.17;;;9.80;99.90;;;;;;5016800;28;20053;-72
2023/01/11 11:17:34;;;;;;;12.80;2.53;;;9.80;99.90;;;;;;5013996;28;20705;-72
2023/01/11 11:20:14;;;;;;;11.00;2.13;;;9.90;99.90;;;;;;4996916;28;20394;-72
2023/01/11 11:22:40;;;;;;;10.85;1.52;;;9.90;99.90;;;;;;5020962;28;20080;-72
2023/01/11 11:25:28;;;;;;;7.00;1.23;;;9.90;99.90;;;;;;5005901;28;20057;-72
2023/01/11 11:27:57;;;;;;;;;;;9.90;99.90;;;;;;4986263;28;20057;-72
2023/01/11 11:30:30;;;;;;;16.40;2.67;;;9.90;99.90;;;;;;5019592;28;20016;-72
2023/01/11 11:33:02;;;;;;;12.15;1.75;;;9.80;99.90;;;;;;5017175;28;20052;-72
2023/01/11 11:35:35;;;;;;;15.00;1.77;;;9.80;99.90;;;;;;5020469;28;20053;-72
2023/01/11 11:38:00;;;;;;;13.90;1.75;;;9.80;99.90;;;;;;5015443;28;20042;-72
2023/01/11 11:40:34;;;;;;;7.30;1.87;;;9.70;99.90;;;;;;5017776;28;20376;-71
2023/01/11 11:43:10;;;;;;;12.07;1.63;;;9.70;99.90;;;;;;5016540;28;20042;-72
2023/01/11 11:45:48;;;;;;;11.10;2.38;;;9.70;99.90;;;;;;5009312;28;20045;-72
2023/01/11 11:48:14;;;;;;;9.02;1.73;;;9.80;99.90;;;;;;5013232;28;20045;-72
2023/01/11 11:50:39;;;;;;;12.03;1.87;;;9.80;99.90;;;;;;5012078;28;20037;-72
2023/01/11 11:53:05;;;;;;;12.45;2.13;;;9.90;99.90;;;;;;5030593;22;20045;-71
2023/01/11 11:55:33;;;;;;;8.40;1.73;;;9.90;99.90;;;;;;5020611;28;20331;-72
2023/01/11 11:58:07;;;;;;;8.98;2.58;;;10.00;99.90;;;;;;5019170;28;20517;-75
2023/01/11 12:00:40;;;;;;;12.30;1.63;;;10.10;99.90;;;;;;5002175;28;20042;-72
2023/01/11 12:03:31;;;;;;;11.52;2.25;;;10.20;99.90;;;;;;4991824;28;20475;-72
2023/01/11 12:06:06;;;;;;;10.82;2.67;;;10.30;99.90;;;;;;5026640;28;20459;-72
2023/01/11 12:08:34;;;;;;;7.75;1.60;;;10.30;99.90;;;;;;5003595;28;20436;-72
2023/01/11 12:11:06;;;;;;;10.57;2.20;;;10.30;99.90;;;;;;5026136;28;20406;-73
2023/01/11 12:13:33;;;;;;;8.90;1.90;;;10.30;99.90;;;;;;5018379;28;20052;-72
2023/01/11 12:16:02;;;;;;;11.55;3.13;;;10.30;99.90;;;;;;5010630;28;20395;-71
2023/01/11 12:18:42;;;;;;;13.13;2.40;;;10.20;99.90;;;;;;5022458;28;20049;-73
2023/01/11 12:21:21;;;;;;;9.55;2.17;;;10.20;99.90;;;;;;4992806;28;20546;-72
2023/01/11 12:24:06;;;;;;;8.52;1.60;;;10.10;99.90;;;;;;5005220;28;20116;-72
2023/01/11 12:26:44;;;;;;;14.07;3.33;;;10.00;99.90;;;;;;5021380;28;20053;-72
2023/01/11 12:29:40;;;;;;;11.57;2.00;;;10.00;99.90;;;;;;4998194;28;20053;-71
2023/01/11 12:32:11;;;;;;;9.52;1.73;;;10.00;99.90;;;;;;5022170;28;20041;-72
2023/01/11 12:35:28;;;;;;;15.93;2.40;;;10.00;99.90;;;;;;5010189;28;20045;-72
2023/01/11 12:38:00;;;;;;;9.50;1.38;;;10.00;99.90;;;;;;4985129;28;20132;-72
2023/01/11 12:40:58;;;;;;;11.98;2.00;;;9.90;99.90;;;;;;5003534;28;20040;-72
2023/01/11 12:44:01;;;;;;;8.32;1.15;;;9.90;99.90;;;;;;5006574;28;20541;-73
2023/01/11 12:46:36;;;;;;;12.60;2.55;;;9.90;99.90;;;;;;5010433;28;20361;-72
2023/01/11 12:49:49;;;;;;;13.10;1.92;;;9.90;99.90;;;;;;5007483;28;20131;-73
2023/01/11 12:52:26;;;;;;;17.08;2.78;;;9.90;99.90;;;;;;5001863;28;20060;-71
2023/01/11 12:55:24;;;;;;;10.95;2.10;;;9.90;99.90;;;;;;4990247;28;20428;-72
2023/01/11 12:58:00;;;;;;;13.23;2.63;;;9.90;99.90;;;;;;5026102;28;20090;-72
2023/01/11 13:00:34;;;;;;;19.38;3.25;;;9.90;99.90;;;;;;5003710;28;20105;-72
2023/01/11 13:03:14;;;;;;;14.43;2.33;;;9.90;99.90;;;;;;5024716;28;20041;-72
2023/01/11 13:06:18;;;;;;;11.98;3.05;;;9.80;99.90;;;;;;5022070;28;20037;-71
2023/01/11 13:08:58;;;;;;;13.60;2.55;;;9.90;99.90;;;;;;4995741;28;20060;-71
2023/01/11 13:11:47;;;;;;;12.50;1.75;;;10.00;99.90;;;;;;5003354;28;20083;-72
2023/01/11 13:14:34;;;;;;;17.20;2.38;;;10.10;99.90;;;;;;5020757;28;20539;-73
2023/01/11 13:17:19;;;;;;;16.15;3.42;;;10.10;99.90;;;;;;5003721;28;20060;-71
2023/01/11 13:19:45;;;;;;;10.45;2.47;;;10.30;99.90;;;;;;5005222;28;20060;-72
2023/01/11 13:22:16;;;;;;;9.73;2.07;;;10.20;99.90;;;;;;5021150;28;20045;-72
2023/01/11 13:24:46;;;;;;;14.15;2.35;;;10.20;99.90;;;;;;5030192;28;20114;-72
2023/01/11 13:27:17;;;;;;;8.30;2.05;;;10.20;99.90;;;;;;5024445;28;20047;-72
2023/01/11 13:29:46;;;;;;;8.50;2.28;;;10.20;99.90;;;;;;5004681;28;20056;-72
2023/01/11 13:32:36;;;;;;;19.10;2.22;;;10.20;99.90;;;;;;4999545;28;20052;-73
2023/01/11 13:35:18;;;;;;;15.07;2.20;;;10.20;99.90;;;;;;5000695;28;20045;-74
2023/01/11 13:38:23;;;;;;;11.05;2.03;;;10.10;99.90;;;;;;5021411;28;20403;-73
2023/01/11 13:40:54;;;;;;;9.77;2.45;;;10.10;99.90;;;;;;5009371;28;20430;-71
2023/01/11 13:43:49;;;;;;;16.75;2.03;;;10.00;99.90;;;;;;5018198;28;20149;-72
2023/01/11 13:46:47;;;;;;;10.50;2.05;;;10.00;99.90;;;;;;5017878;28;20049;-73
2023/01/11 13:49:37;;;;;;;;;;;9.90;99.90;;;;;;5007560;28;20315;-72
2023/01/11 13:52:12;;;;;;;15.18;2.45;;;9.90;99.90;;;;;;4999619;28;20404;-72